createdAt,value
2023-02-22T01:14:47.306Z,98.7
2023-02-22T01:34:47.277Z,99.1
2023-02-22T01:54:47.248Z,99.5
2023-02-22T02:14:47.208Z,100
2023-02-22T02:34:47.188Z,100
2023-02-22T03:14:47.131Z,100
2023-02-22T03:54:47.081Z,100
2023-02-22T04:14:47.058Z,100
2023-02-22T04:34:47.011Z,100
2023-02-22T04:54:46.986Z,100
2023-02-22T05:14:46.970Z,100
2023-02-22T05:34:46.975Z,100
2023-02-22T05:54:46.898Z,100
2023-02-22T06:14:46.894Z,100
2023-02-22T06:34:46.846Z,100
2023-02-22T06:54:46.810Z,100
2023-02-22T07:14:46.798Z,100
2023-02-22T08:14:46.715Z,100
2023-02-22T08:54:46.685Z,100
2023-02-22T09:14:46.623Z,100
2023-02-22T09:34:46.590Z,100
2023-02-22T09:54:46.581Z,100
2023-02-22T10:14:46.533Z,100
2023-02-22T10:34:46.497Z,100
2023-02-22T10:54:46.471Z,99.1
2023-02-22T11:14:46.437Z,86.4
2023-02-22T11:34:46.412Z,83.2
2023-02-22T11:54:46.429Z,78.9
2023-02-22T12:14:46.314Z,73.9
2023-02-22T13:34:46.187Z,65.4
2023-02-22T13:54:46.136Z,64
2023-02-22T14:14:46.109Z,63.8
2023-02-22T14:34:46.058Z,58.7
2023-02-22T14:54:46.029Z,58.1
2023-02-22T15:14:45.980Z,54.4
2023-02-22T15:34:45.935Z,50.7
2023-02-22T15:54:45.917Z,54
2023-02-22T16:14:45.881Z,58.3
2023-02-22T16:34:45.851Z,60.4
2023-02-22T16:54:45.791Z,64.2
2023-02-22T17:34:45.705Z,71.8
2023-02-22T17:54:45.671Z,74.6
2023-02-22T18:14:45.624Z,77.5
2023-02-22T18:34:45.602Z,80.2
2023-02-22T18:54:45.570Z,80.5
2023-02-22T19:14:45.528Z,79.2
2023-02-22T19:34:45.499Z,82
2023-02-22T19:54:45.458Z,84.1
2023-02-22T20:14:45.415Z,85.8
2023-02-22T20:34:45.388Z,87.1
2023-02-22T20:54:45.362Z,88.4
2023-02-22T21:14:45.347Z,89.6
2023-02-22T21:34:45.305Z,91.2
2023-02-22T21:54:45.274Z,91.9
2023-02-22T22:14:45.210Z,91.9
2023-02-22T22:34:45.216Z,93
2023-02-22T22:54:45.329Z,93.3
2023-02-22T23:34:45.081Z,94.9
2023-02-22T23:54:45.050Z,95.6
